createdAt,value
2023-01-15T00:00:58.754Z,6.86
2023-01-15T00:01:58.698Z,6.84
2023-01-15T00:02:58.727Z,6.83
2023-01-15T00:03:58.643Z,6.77
2023-01-15T00:04:58.674Z,6.77
2023-01-15T00:05:58.576Z,6.77
2023-01-15T00:06:58.638Z,6.76
2023-01-15T00:07:58.637Z,6.72
2023-01-15T00:08:58.545Z,6.73
2023-01-15T00:09:58.578Z,6.76
2023-01-15T00:10:58.538Z,6.71
2023-01-15T00:11:58.609Z,6.73
2023-01-15T00:12:58.514Z,6.68
2023-01-15T00:13:58.504Z,6.68
2023-01-15T00:14:58.486Z,6.66
2023-01-15T00:15:58.544Z,6.68
2023-01-15T00:16:58.489Z,6.68
2023-01-15T00:17:58.491Z,6.66
2023-01-15T00:18:58.470Z,6.66
2023-01-15T00:19:58.407Z,6.65
2023-01-15T00:20:58.424Z,6.63
2023-01-15T00:21:58.423Z,6.65
2023-01-15T00:22:58.433Z,6.65
2023-01-15T00:23:58.367Z,6.65
2023-01-15T00:24:58.386Z,6.63
2023-01-15T00:25:58.332Z,6.65
2023-01-15T00:26:58.307Z,6.63
2023-01-15T00:27:58.290Z,6.62
2023-01-15T00:28:58.279Z,6.65
2023-01-15T00:29:58.306Z,6.63
2023-01-15T00:30:58.314Z,6.63
2023-01-15T00:31:58.284Z,6.61
2023-01-15T00:32:58.231Z,6.62
2023-01-15T00:33:58.216Z,6.62
2023-01-15T00:34:58.210Z,6.61
2023-01-15T00:35:58.178Z,6.62
2023-01-15T00:36:58.206Z,6.54
2023-01-15T00:37:58.155Z,6.59
2023-01-15T00:38:58.140Z,6.59
2023-01-15T00:39:58.177Z,6.61
2023-01-15T00:40:58.150Z,6.59
2023-01-15T00:41:58.150Z,6.61
2023-01-15T00:42:58.095Z,6.59
2023-01-15T00:43:58.101Z,6.59
2023-01-15T00:44:58.103Z,6.56
2023-01-15T00:45:58.079Z,6.58
2023-01-15T00:46:58.033Z,6.59
2023-01-15T00:47:58.092Z,6.58
2023-01-15T00:48:58.069Z,6.54
2023-01-15T00:49:58.062Z,6.54
2023-01-15T00:50:57.982Z,6.53
2023-01-15T00:51:58.006Z,6.53
2023-01-15T00:52:57.978Z,6.58
2023-01-15T00:53:57.934Z,6.51
2023-01-15T00:54:58.047Z,6.54
2023-01-15T00:55:57.961Z,6.54
2023-01-15T00:56:57.917Z,6.54
2023-01-15T00:57:57.895Z,6.53
2023-01-15T00:58:57.881Z,6.54
2023-01-15T00:59:57.866Z,6.56
2023-01-15T01:00:57.989Z,6.59
2023-01-15T01:01:57.946Z,6.58
2023-01-15T01:02:57.805Z,6.63
2023-01-15T01:03:57.835Z,6.61
2023-01-15T01:04:57.865Z,6.63
2023-01-15T01:05:57.772Z,6.62
2023-01-15T01:06:57.775Z,6.63
2023-01-15T01:07:57.756Z,6.62
2023-01-15T01:08:57.792Z,6.65
2023-01-15T01:09:57.753Z,6.63
2023-01-15T01:10:57.740Z,6.65
2023-01-15T01:11:57.689Z,6.66
2023-01-15T01:12:57.706Z,6.65
2023-01-15T01:13:57.700Z,6.65
2023-01-15T01:14:57.694Z,6.68
2023-01-15T01:15:57.715Z,6.68
2023-01-15T01:16:57.637Z,6.66
2023-01-15T01:17:57.609Z,6.65
2023-01-15T01:18:57.624Z,6.65
2023-01-15T01:19:57.619Z,6.68
2023-01-15T01:20:57.639Z,6.69
2023-01-15T01:21:57.552Z,6.69
2023-01-15T01:22:57.552Z,6.66
2023-01-15T01:23:57.520Z,6.68
2023-01-15T01:24:57.553Z,6.66
2023-01-15T01:25:57.527Z,6.71
2023-01-15T01:26:57.504Z,6.71
2023-01-15T01:27:57.494Z,6.71
2023-01-15T01:28:57.454Z,6.69
2023-01-15T01:29:57.467Z,6.68
2023-01-15T01:30:57.433Z,6.71
2023-01-15T01:31:57.446Z,6.72
2023-01-15T01:32:57.439Z,6.69
2023-01-15T01:33:57.381Z,6.68
2023-01-15T01:34:57.461Z,6.72
2023-01-15T01:35:57.406Z,6.69
2023-01-15T01:36:57.351Z,6.69
2023-01-15T01:37:57.367Z,6.68
2023-01-15T01:38:57.343Z,6.69
2023-01-15T01:39:57.368Z,6.72
2023-01-15T01:40:57.407Z,6.69
2023-01-15T01:41:57.384Z,6.69
2023-01-15T01:42:57.298Z,6.69
2023-01-15T01:43:57.260Z,6.69
2023-01-15T01:44:57.311Z,6.71
2023-01-15T01:45:57.334Z,6.69
2023-01-15T01:46:57.212Z,6.72
2023-01-15T01:47:57.188Z,6.71
2023-01-15T01:48:57.181Z,6.69
2023-01-15T01:49:57.188Z,6.69
2023-01-15T01:50:57.170Z,6.72
2023-01-15T01:51:57.158Z,6.72
2023-01-15T01:52:57.180Z,6.76
2023-01-15T01:53:57.117Z,6.73
2023-01-15T01:54:57.154Z,6.73
2023-01-15T01:55:57.131Z,6.79
2023-01-15T01:56:57.091Z,6.80
2023-01-15T01:58:20.363Z,6.83
2023-01-15T01:58:57.078Z,6.84
2023-01-15T01:59:57.133Z,6.84
2023-01-15T02:00:57.210Z,6.84
2023-01-15T02:01:57.179Z,6.84
2023-01-15T02:02:57.028Z,6.84
2023-01-15T02:03:57.003Z,6.86
2023-01-15T02:04:57.045Z,6.87
2023-01-15T02:05:57.011Z,6.87
2023-01-15T02:06:56.975Z,6.86
2023-01-15T02:07:56.928Z,6.86
2023-01-15T02:08:56.966Z,6.86
2023-01-15T02:09:56.929Z,6.86
2023-01-15T02:10:56.963Z,6.90
2023-01-15T02:11:56.956Z,6.86
2023-01-15T02:12:56.890Z,6.84
2023-01-15T02:13:56.849Z,6.84
2023-01-15T02:14:56.860Z,6.84
2023-01-15T02:15:56.855Z,6.84
2023-01-15T02:16:56.820Z,6.86
2023-01-15T02:17:56.839Z,6.86
2023-01-15T02:18:56.768Z,6.86
2023-01-15T02:19:56.843Z,6.86
2023-01-15T02:20:56.789Z,6.87
2023-01-15T02:21:56.822Z,6.87
2023-01-15T02:22:56.748Z,6.87
2023-01-15T02:23:56.783Z,6.90
2023-01-15T02:24:56.714Z,6.90
2023-01-15T02:25:56.730Z,6.90
2023-01-15T02:26:56.723Z,6.90
2023-01-15T02:27:58.855Z,6.91
2023-01-15T02:28:56.654Z,6.95
2023-01-15T02:29:56.654Z,6.94
2023-01-15T02:30:56.724Z,6.90
2023-01-15T02:31:56.621Z,6.94
2023-01-15T02:32:56.579Z,6.95
2023-01-15T02:33:56.577Z,6.97
2023-01-15T02:34:58.644Z,6.97
2023-01-15T02:35:56.620Z,6.97
2023-01-15T02:36:56.568Z,6.95
2023-01-15T02:37:56.586Z,6.98
2023-01-15T02:38:56.506Z,6.97
2023-01-15T02:39:56.517Z,6.97
2023-01-15T02:40:56.459Z,6.99
2023-01-15T02:41:56.457Z,6.99
2023-01-15T02:42:56.517Z,6.97
2023-01-15T02:43:56.471Z,6.97
2023-01-15T02:44:56.437Z,6.98
2023-01-15T03:00:27.110Z,6.98
2023-01-15T03:01:28.010Z,6.95
2023-01-15T03:02:27.926Z,6.95
2023-01-15T03:03:27.885Z,6.97
2023-01-15T03:04:27.858Z,6.95
2023-01-15T03:05:27.856Z,6.98
2023-01-15T03:06:27.768Z,6.97
2023-01-15T03:07:27.840Z,6.99
2023-01-15T03:08:27.753Z,6.98
2023-01-15T03:09:27.737Z,6.98
2023-01-15T03:10:27.816Z,6.99
2023-01-15T03:11:27.756Z,7.01
2023-01-15T03:12:27.692Z,7.02
2023-01-15T03:13:27.706Z,7.01
2023-01-15T03:14:27.695Z,7.04
2023-01-15T03:15:27.692Z,6.99
2023-01-15T03:16:27.645Z,7.01
2023-01-15T03:17:27.712Z,6.99
2023-01-15T03:18:27.651Z,6.99
2023-01-15T03:19:27.682Z,6.98
2023-01-15T03:20:27.637Z,6.99
2023-01-15T03:21:27.625Z,6.98
2023-01-15T03:22:27.833Z,6.98
2023-01-15T03:23:27.539Z,6.97
2023-01-15T03:24:27.531Z,6.95
2023-01-15T03:25:27.519Z,6.99
2023-01-15T03:26:27.522Z,6.99
2023-01-15T03:27:27.496Z,6.99
2023-01-15T03:28:27.577Z,7.01
2023-01-15T03:29:27.460Z,7.01
2023-01-15T03:30:27.565Z,7.01
2023-01-15T03:31:27.492Z,7.02
2023-01-15T03:32:27.429Z,7.02
2023-01-15T03:33:27.456Z,7.04
2023-01-15T03:34:27.383Z,7.01
2023-01-15T03:35:27.380Z,7.02
2023-01-15T03:36:27.386Z,7.04
2023-01-15T03:37:27.364Z,7.04
2023-01-15T03:38:27.386Z,7.04
2023-01-15T03:39:27.321Z,7.04
2023-01-15T03:40:27.318Z,7.02
2023-01-15T03:41:27.374Z,7.02
2023-01-15T03:42:27.333Z,7.04
2023-01-15T03:43:27.323Z,7.04
2023-01-15T03:44:27.257Z,7.07
2023-01-15T03:45:27.281Z,7.07
2023-01-15T03:46:27.274Z,7.05
2023-01-15T03:47:27.271Z,7.05
2023-01-15T03:48:27.245Z,7.07
2023-01-15T03:49:27.200Z,7.09
2023-01-15T03:50:27.181Z,7.08
2023-01-15T03:51:27.169Z,7.07
2023-01-15T03:52:27.195Z,7.08
2023-01-15T03:53:27.196Z,7.08
2023-01-15T03:54:27.117Z,7.08
2023-01-15T03:55:27.181Z,7.08
2023-01-15T03:56:27.187Z,7.13
2023-01-15T03:57:27.097Z,7.12
2023-01-15T03:58:27.078Z,7.12
2023-01-15T03:59:27.081Z,7.12
2023-01-15T04:00:27.069Z,7.16
2023-01-15T04:01:27.205Z,7.09
2023-01-15T04:02:27.115Z,7.08
2023-01-15T04:03:27.003Z,7.07
2023-01-15T04:04:27.022Z,7.08
2023-01-15T04:05:26.973Z,7.09
2023-01-15T04:06:26.949Z,7.08
2023-01-15T04:07:27.008Z,7.08
2023-01-15T04:08:26.953Z,7.07
2023-01-15T04:09:26.935Z,7.05
2023-01-15T04:10:26.951Z,7.04
2023-01-15T04:11:26.938Z,7.07
2023-01-15T04:12:26.935Z,7.04
2023-01-15T04:13:28.776Z,7.05
2023-01-15T04:14:26.867Z,7.02
2023-01-15T04:15:26.860Z,7.05
2023-01-15T04:16:26.902Z,7.04
2023-01-15T04:17:26.818Z,7.02
2023-01-15T04:18:26.834Z,7.07
2023-01-15T04:19:26.784Z,7.05
2023-01-15T04:20:26.818Z,7.04
2023-01-15T04:21:26.804Z,7.07
2023-01-15T04:22:25.787Z,7.04
2023-01-15T04:23:26.819Z,7.04
2023-01-15T04:24:26.743Z,7.04
2023-01-15T04:25:26.727Z,7.04
2023-01-15T04:26:26.742Z,7.02
2023-01-15T04:27:26.676Z,7.02
2023-01-15T04:28:26.770Z,7.01
2023-01-15T04:29:26.684Z,6.99
2023-01-15T04:30:26.687Z,6.99
2023-01-15T04:31:26.665Z,7.01
2023-01-15T04:32:26.603Z,6.99
2023-01-15T04:33:26.577Z,6.98
2023-01-15T04:34:26.604Z,6.97
2023-01-15T04:35:26.592Z,6.97
2023-01-15T04:36:26.579Z,6.98
2023-01-15T04:37:26.597Z,6.97
2023-01-15T04:38:26.531Z,6.98
2023-01-15T04:39:26.562Z,6.98
2023-01-15T04:40:26.524Z,6.99
2023-01-15T04:41:26.520Z,6.97
2023-01-15T04:42:26.494Z,6.99
2023-01-15T04:43:26.479Z,7.01
2023-01-15T04:44:26.506Z,6.99
2023-01-15T04:45:26.442Z,6.99
2023-01-15T04:46:26.449Z,7.02
2023-01-15T04:47:26.444Z,7.02
2023-01-15T04:48:26.454Z,7.01
2023-01-15T04:49:26.403Z,7.01
2023-01-15T04:50:26.360Z,7.01
2023-01-15T04:51:26.344Z,6.99
2023-01-15T04:52:26.471Z,6.99
2023-01-15T04:53:26.321Z,6.98
2023-01-15T04:54:26.345Z,6.99
2023-01-15T04:55:26.327Z,6.97
2023-01-15T04:56:26.276Z,6.94
2023-01-15T04:57:26.282Z,6.98
2023-01-15T04:58:26.315Z,6.95
2023-01-15T04:59:26.278Z,6.95
2023-01-15T05:00:26.265Z,6.95
2023-01-15T05:01:26.389Z,6.97
2023-01-15T05:02:26.380Z,6.95
2023-01-15T05:03:26.186Z,6.95
2023-01-15T05:04:26.234Z,6.98
2023-01-15T05:05:26.183Z,6.95
2023-01-15T05:06:26.181Z,6.94
2023-01-15T05:07:26.210Z,6.97
2023-01-15T05:08:26.123Z,6.98
2023-01-15T05:09:26.211Z,6.99
2023-01-15T05:10:26.179Z,6.98
2023-01-15T05:11:26.093Z,6.98
2023-01-15T05:12:26.128Z,6.98
2023-01-15T05:13:26.122Z,7.02
2023-01-15T05:14:26.058Z,6.99
2023-01-15T05:15:26.095Z,6.98
2023-01-15T05:16:26.075Z,6.98
2023-01-15T05:17:26.042Z,6.98
2023-01-15T05:18:26.445Z,6.98
2023-01-15T05:19:25.972Z,6.98
2023-01-15T05:20:26.004Z,6.91
2023-01-15T05:21:25.965Z,6.94
2023-01-15T05:22:26.004Z,6.91
2023-01-15T05:23:25.909Z,6.91
2023-01-15T05:24:25.908Z,6.90
2023-01-15T05:25:26.027Z,6.90
2023-01-15T05:26:25.943Z,6.90
2023-01-15T05:27:25.932Z,6.87
2023-01-15T05:28:25.845Z,6.89
2023-01-15T05:29:25.875Z,6.87
2023-01-15T05:30:25.922Z,6.86
2023-01-15T05:31:25.934Z,6.86
2023-01-15T05:32:25.834Z,6.87
2023-01-15T05:33:25.784Z,6.90
2023-01-15T05:34:25.763Z,6.86
2023-01-15T05:35:25.807Z,6.87
2023-01-15T05:36:25.741Z,6.89
2023-01-15T05:37:25.793Z,6.89
2023-01-15T05:38:25.713Z,6.90
2023-01-15T05:39:25.694Z,6.90
2023-01-15T05:40:25.683Z,6.90
2023-01-15T05:41:25.691Z,6.90
2023-01-15T05:42:25.684Z,6.91
2023-01-15T06:01:11.766Z,6.95
2023-01-15T06:02:12.780Z,6.94
2023-01-15T06:03:12.705Z,6.95
2023-01-15T06:04:12.666Z,6.94
2023-01-15T06:05:12.691Z,6.94
2023-01-15T06:06:12.674Z,6.90
2023-01-15T06:07:12.619Z,6.94
2023-01-15T06:08:12.654Z,6.94
2023-01-15T06:09:12.618Z,6.94
2023-01-15T06:10:12.678Z,6.91
2023-01-15T06:11:12.599Z,6.95
2023-01-15T06:12:12.587Z,6.95
2023-01-15T06:13:12.577Z,6.90
2023-01-15T06:14:12.574Z,6.94
2023-01-15T06:15:12.525Z,6.97
2023-01-15T06:16:12.571Z,6.95
2023-01-15T06:17:12.543Z,6.98
2023-01-15T06:18:12.580Z,7.01
2023-01-15T06:19:12.495Z,6.99
2023-01-15T06:20:12.522Z,7.02
2023-01-15T06:21:12.480Z,7.01
2023-01-15T06:22:12.451Z,7.01
2023-01-15T06:23:12.426Z,7.04
2023-01-15T06:24:12.393Z,7.04
2023-01-15T06:25:12.407Z,7.04
2023-01-15T06:26:12.377Z,7.07
2023-01-15T06:27:12.345Z,7.05
2023-01-15T06:28:12.393Z,7.07
2023-01-15T06:29:12.362Z,7.08
2023-01-15T06:31:28.657Z,7.08
2023-01-15T06:32:25.111Z,7.09
2023-01-15T06:33:25.130Z,7.08
2023-01-15T06:34:25.098Z,7.08
2023-01-15T06:35:25.080Z,7.08
2023-01-15T06:36:25.076Z,7.13
2023-01-15T06:37:25.011Z,7.13
2023-01-15T06:38:25.044Z,7.15
2023-01-15T06:39:24.983Z,7.15
2023-01-15T06:40:25.006Z,7.16
2023-01-15T06:41:24.950Z,7.17
2023-01-15T06:42:24.953Z,7.16
2023-01-15T06:43:24.948Z,7.16
2023-01-15T06:44:24.951Z,7.16
2023-01-15T06:45:25.005Z,7.15
2023-01-15T06:46:24.959Z,7.17
2023-01-15T06:47:25.083Z,7.17
2023-01-15T06:48:24.869Z,7.17
2023-01-15T06:49:24.850Z,7.17
2023-01-15T06:50:24.875Z,7.16
2023-01-15T06:51:24.843Z,7.16
2023-01-15T06:52:24.808Z,7.17
2023-01-15T06:53:24.839Z,7.19
2023-01-15T06:54:24.867Z,7.17
2023-01-15T06:55:24.860Z,7.17
2023-01-15T06:56:24.773Z,7.17
2023-01-15T06:57:24.805Z,7.17
2023-01-15T06:58:24.781Z,7.19
2023-01-15T06:59:24.767Z,7.22
2023-01-15T07:00:24.807Z,7.23
2023-01-15T07:01:24.828Z,7.20
2023-01-15T07:02:24.717Z,7.22
2023-01-15T07:03:24.665Z,7.20
2023-01-15T07:04:24.655Z,7.22
2023-01-15T07:05:24.688Z,7.27
2023-01-15T07:06:26.422Z,7.31
2023-01-15T07:07:24.711Z,7.31
2023-01-15T07:08:24.627Z,7.29
2023-01-15T07:09:24.602Z,7.27
2023-01-15T07:10:24.607Z,7.27
2023-01-15T07:11:24.560Z,7.27
2023-01-15T07:12:24.577Z,7.24
2023-01-15T07:13:24.523Z,7.23
2023-01-15T07:14:24.584Z,7.23
2023-01-15T07:15:24.546Z,7.20
2023-01-15T07:16:24.545Z,7.19
2023-01-15T07:17:24.522Z,7.20
2023-01-15T07:18:24.613Z,7.17
2023-01-15T07:19:24.481Z,7.20
2023-01-15T07:20:24.437Z,7.19
2023-01-15T07:21:24.435Z,7.19
2023-01-15T07:22:24.429Z,7.19
2023-01-15T07:23:24.393Z,7.19
2023-01-15T07:24:24.401Z,7.20
2023-01-15T07:25:24.459Z,7.20
2023-01-15T07:26:24.387Z,7.22
2023-01-15T07:27:24.383Z,7.23
2023-01-15T07:28:24.438Z,7.23
2023-01-15T07:29:24.358Z,7.23
2023-01-15T07:30:24.291Z,7.20
2023-01-15T07:31:24.345Z,7.22
2023-01-15T07:32:24.263Z,7.19
2023-01-15T07:33:24.247Z,7.22
2023-01-15T07:34:24.268Z,7.17
2023-01-15T07:35:24.284Z,7.15
2023-01-15T07:36:24.246Z,7.15
2023-01-15T07:37:24.202Z,7.13
2023-01-15T07:38:24.241Z,7.13
2023-01-15T07:39:24.263Z,7.12
2023-01-15T07:40:24.191Z,7.13
2023-01-15T07:41:24.156Z,7.13
2023-01-15T07:42:24.159Z,7.15
2023-01-15T07:43:24.141Z,7.12
2023-01-15T07:44:24.150Z,7.12
2023-01-15T07:45:24.164Z,7.08
2023-01-15T07:46:24.107Z,7.09
2023-01-15T07:47:24.100Z,7.08
2023-01-15T07:48:24.044Z,7.07
2023-01-15T07:49:24.053Z,7.08
2023-01-15T07:50:24.052Z,7.07
2023-01-15T07:51:24.015Z,7.05
2023-01-15T07:52:24.024Z,7.02
2023-01-15T07:53:23.975Z,7.04
2023-01-15T07:54:24.017Z,7.02
2023-01-15T07:55:23.978Z,7.02
2023-01-15T07:56:23.942Z,7.01
2023-01-15T07:57:23.982Z,7.01
2023-01-15T07:58:23.908Z,7.01
2023-01-15T07:59:24.007Z,7.05
2023-01-15T08:00:23.925Z,7.04
2023-01-15T08:01:24.001Z,7.07
2023-01-15T08:02:23.856Z,7.04
2023-01-15T08:03:23.854Z,7.05
2023-01-15T08:04:23.879Z,7.05
2023-01-15T08:05:23.830Z,7.07
2023-01-15T08:06:23.886Z,7.09
2023-01-15T08:07:23.816Z,7.12
2023-01-15T08:08:23.787Z,7.13
2023-01-15T08:09:23.772Z,7.13
2023-01-15T08:10:23.756Z,7.13
2023-01-15T08:11:23.807Z,7.12
2023-01-15T08:12:23.747Z,7.12
2023-01-15T08:13:23.707Z,7.13
2023-01-15T08:14:23.708Z,7.12
2023-01-15T08:15:23.697Z,7.09
2023-01-15T08:17:38.526Z,7.07
2023-01-15T08:18:38.435Z,7.02
2023-01-15T08:19:38.380Z,7.01
2023-01-15T08:20:38.413Z,6.99
2023-01-15T08:21:38.415Z,6.98
2023-01-15T08:22:38.339Z,6.98
2023-01-15T08:23:38.350Z,6.95
2023-01-15T08:24:38.318Z,6.97
2023-01-15T08:25:38.323Z,6.95
2023-01-15T08:26:38.299Z,6.95
2023-01-15T08:27:38.301Z,6.95
2023-01-15T08:28:38.278Z,6.97
2023-01-15T08:29:38.353Z,6.97
2023-01-15T08:30:38.285Z,6.97
2023-01-15T08:31:38.279Z,6.91
2023-01-15T08:32:38.209Z,6.91
2023-01-15T08:33:38.201Z,6.97
2023-01-15T08:34:38.282Z,6.94
2023-01-15T08:35:38.175Z,6.99
2023-01-15T08:36:38.168Z,6.99
2023-01-15T08:37:38.180Z,6.98
2023-01-15T08:38:38.157Z,7.02
2023-01-15T08:39:38.128Z,7.02
2023-01-15T08:40:38.130Z,7.02
2023-01-15T08:41:38.164Z,7.04
2023-01-15T08:42:38.083Z,7.04
2023-01-15T08:43:38.061Z,7.05
2023-01-15T08:44:38.082Z,7.05
2023-01-15T08:45:38.095Z,7.04
2023-01-15T08:46:38.032Z,7.05
2023-01-15T08:47:38.041Z,7.05
2023-01-15T08:48:37.997Z,7.04
2023-01-15T08:49:37.980Z,7.07
2023-01-15T08:50:37.972Z,7.08
2023-01-15T08:51:37.940Z,7.09
2023-01-15T08:52:37.958Z,7.08
2023-01-15T08:53:37.974Z,7.12
2023-01-15T08:54:37.935Z,7.12
2023-01-15T08:55:37.901Z,7.12
2023-01-15T08:56:37.989Z,7.09
2023-01-15T08:57:37.862Z,7.12
2023-01-15T08:58:37.875Z,7.08
2023-01-15T08:59:37.843Z,7.08
2023-01-15T09:00:37.876Z,7.09
2023-01-15T09:01:37.998Z,7.09
2023-01-15T09:02:37.809Z,7.12
2023-01-15T09:03:37.798Z,7.09
2023-01-15T09:04:37.807Z,7.12
2023-01-15T09:05:37.778Z,7.13
2023-01-15T09:06:37.782Z,7.17
2023-01-15T09:07:37.745Z,7.17
2023-01-15T09:08:37.754Z,7.15
2023-01-15T09:09:37.725Z,7.13
2023-01-15T09:10:37.703Z,7.15
2023-01-15T09:11:37.680Z,7.12
2023-01-15T09:12:37.690Z,7.09
2023-01-15T09:13:37.640Z,7.13
2023-01-15T09:14:56.364Z,7.09
2023-01-15T09:15:37.641Z,7.12
2023-01-15T09:16:37.645Z,7.12
2023-01-15T09:17:37.588Z,7.12
2023-01-15T09:18:37.594Z,7.17
2023-01-15T09:19:37.575Z,7.19
2023-01-15T09:20:37.570Z,7.19
2023-01-15T09:21:37.535Z,7.20
2023-01-15T09:22:37.537Z,7.27
2023-01-15T09:23:37.524Z,7.34
2023-01-15T09:24:37.498Z,7.32
2023-01-15T09:25:37.499Z,7.38
2023-01-15T09:26:37.472Z,7.40
2023-01-15T09:27:37.460Z,7.44
2023-01-15T09:28:37.521Z,7.49
2023-01-15T09:29:39.167Z,7.53
2023-01-15T09:30:37.468Z,7.59
2023-01-15T09:31:37.407Z,7.62
2023-01-15T09:32:38.616Z,7.62
2023-01-15T09:33:37.387Z,7.69
2023-01-15T09:34:37.395Z,7.77
2023-01-15T09:35:40.848Z,7.74
2023-01-15T09:36:39.676Z,7.79
2023-01-15T09:37:37.339Z,7.78
2023-01-15T09:38:37.328Z,7.79
2023-01-15T09:39:38.319Z,7.82
2023-01-15T09:40:37.289Z,7.81
2023-01-15T09:43:03.063Z,7.72
2023-01-15T09:44:04.047Z,7.71
2023-01-15T09:45:04.045Z,7.72
2023-01-15T09:46:04.065Z,7.74
2023-01-15T09:47:04.013Z,7.75
2023-01-15T09:48:06.121Z,7.75
2023-01-15T09:49:03.989Z,7.74
2023-01-15T09:50:03.973Z,7.71
2023-01-15T09:51:03.982Z,7.72
2023-01-15T09:52:03.948Z,7.72
2023-01-15T09:53:03.943Z,7.71
2023-01-15T09:54:03.913Z,7.71
2023-01-15T09:55:03.911Z,7.74
2023-01-15T09:56:03.886Z,7.72
2023-01-15T10:00:05.042Z,7.71
2023-01-15T10:01:03.964Z,7.72
2023-01-15T10:02:03.874Z,7.75
2023-01-15T10:03:03.932Z,7.75
2023-01-15T10:04:03.919Z,7.77
2023-01-15T10:05:05.539Z,7.75
2023-01-15T10:06:03.831Z,7.79
2023-01-15T10:07:03.799Z,7.84
2023-01-15T10:08:03.866Z,7.87
2023-01-15T10:09:03.777Z,7.85
2023-01-15T10:10:03.765Z,7.87
2023-01-15T10:11:03.749Z,7.87
2023-01-15T10:12:03.733Z,7.84
2023-01-15T10:13:03.741Z,7.92
2023-01-15T10:14:03.703Z,7.89
2023-01-15T10:15:03.854Z,7.85
2023-01-15T10:16:03.863Z,7.87
2023-01-15T10:17:03.668Z,7.92
2023-01-15T10:18:03.703Z,7.93
2023-01-15T10:19:03.697Z,7.94
2023-01-15T10:20:03.664Z,7.96
2023-01-15T10:21:03.643Z,7.96
2023-01-15T10:22:03.628Z,7.89
2023-01-15T10:23:03.585Z,7.90
2023-01-15T10:24:03.570Z,7.87
2023-01-15T10:25:03.564Z,7.89
2023-01-15T10:26:03.614Z,7.82
2023-01-15T10:27:03.572Z,7.82
2023-01-15T10:28:03.547Z,7.85
2023-01-15T10:29:03.506Z,7.90
2023-01-15T10:30:03.586Z,7.90
2023-01-15T10:31:03.540Z,7.92
2023-01-15T10:32:03.531Z,7.90
2023-01-15T10:33:03.702Z,7.94
2023-01-15T10:34:03.520Z,7.99
2023-01-15T10:35:03.446Z,8.00
2023-01-15T10:36:03.450Z,8.04
2023-01-15T10:37:03.480Z,8.10
2023-01-15T10:38:03.382Z,8.12
2023-01-15T10:39:03.359Z,8.12
2023-01-15T10:40:03.393Z,8.12
2023-01-15T10:41:03.470Z,8.17
2023-01-15T10:42:03.353Z,8.21
2023-01-15T10:43:03.321Z,8.25
2023-01-15T10:44:04.493Z,8.21
2023-01-15T10:45:03.288Z,8.18
2023-01-15T10:46:03.320Z,8.15
2023-01-15T10:47:06.623Z,8.18
2023-01-15T10:48:03.307Z,8.20
2023-01-15T10:49:03.335Z,8.22
2023-01-15T10:50:03.221Z,8.22
2023-01-15T10:51:03.248Z,8.25
2023-01-15T11:00:32.427Z,8.28
2023-01-15T11:01:31.402Z,8.32
2023-01-15T11:02:31.359Z,8.32
2023-01-15T11:03:31.167Z,8.35
2023-01-15T11:04:31.156Z,8.29
2023-01-15T11:05:31.187Z,8.29
2023-01-15T11:06:31.140Z,8.30
2023-01-15T11:07:31.126Z,8.30
2023-01-15T11:09:31.118Z,8.25
2023-01-15T11:10:31.084Z,8.30
2023-01-15T11:11:31.086Z,8.35
2023-01-15T11:12:31.052Z,8.35
2023-01-15T11:13:31.042Z,8.33
2023-01-15T11:14:31.032Z,8.33
2023-01-15T11:15:31.075Z,8.40
2023-01-15T11:16:31.070Z,8.47
2023-01-15T11:17:31.108Z,8.48
2023-01-15T11:18:30.954Z,8.50
2023-01-15T11:19:32.116Z,8.42
2023-01-15T11:20:30.973Z,8.40
2023-01-15T11:21:30.926Z,8.37
2023-01-15T11:22:30.926Z,8.40
2023-01-15T11:23:30.891Z,8.37
2023-01-15T11:24:30.880Z,8.37
2023-01-15T11:25:30.875Z,8.37
2023-01-15T11:26:30.892Z,8.35
2023-01-15T11:27:30.877Z,8.33
2023-01-15T11:28:30.847Z,8.32
2023-01-15T11:29:30.824Z,8.32
2023-01-15T11:30:30.799Z,8.32
2023-01-15T11:31:30.845Z,8.30
2023-01-15T11:32:30.802Z,8.28
2023-01-15T11:33:30.762Z,8.28
2023-01-15T11:34:30.811Z,8.26
2023-01-15T11:35:30.747Z,8.26
2023-01-15T11:36:31.081Z,8.25
2023-01-15T11:37:30.774Z,8.26
2023-01-15T11:38:30.730Z,8.29
2023-01-15T11:40:57.573Z,8.30
2023-01-15T11:41:43.974Z,8.32
2023-01-15T11:42:43.994Z,8.30
2023-01-15T11:43:43.952Z,8.42
2023-01-15T11:44:43.943Z,8.48
2023-01-15T11:45:43.919Z,8.54
2023-01-15T11:46:43.936Z,8.63
2023-01-15T11:47:45.016Z,8.55
2023-01-15T11:48:43.878Z,8.55
2023-01-15T11:49:43.866Z,8.63
2023-01-15T11:50:45.119Z,8.68
2023-01-15T11:51:43.901Z,8.62
2023-01-15T11:52:48.874Z,8.65
2023-01-15T11:53:43.820Z,8.62
2023-01-15T11:54:43.795Z,8.62
2023-01-15T11:55:43.804Z,8.63
2023-01-15T11:56:45.984Z,8.66
2023-01-15T11:57:43.764Z,8.63
2023-01-15T11:58:43.736Z,8.69
2023-01-15T11:59:43.745Z,8.72
2023-01-15T12:00:43.731Z,8.68
2023-01-15T12:01:43.699Z,8.65
2023-01-15T12:02:43.702Z,8.62
2023-01-15T12:03:43.816Z,8.62
2023-01-15T12:04:45.418Z,8.62
2023-01-15T12:05:43.652Z,8.57
2023-01-15T12:06:43.633Z,8.53
2023-01-15T12:07:43.625Z,8.57
2023-01-15T12:08:43.602Z,8.55
2023-01-15T12:09:43.608Z,8.51
2023-01-15T12:10:43.584Z,8.53
2023-01-15T12:11:43.585Z,8.50
2023-01-15T12:12:43.561Z,8.48
2023-01-15T12:13:43.535Z,8.42
2023-01-15T12:14:43.536Z,8.42
2023-01-15T12:15:43.521Z,8.42
2023-01-15T12:16:43.512Z,8.40
2023-01-15T12:17:43.524Z,8.40
2023-01-15T12:18:43.487Z,8.45
2023-01-15T12:19:43.481Z,8.42
2023-01-15T12:20:43.457Z,8.40
2023-01-15T12:21:43.442Z,8.39
2023-01-15T12:22:43.425Z,8.36
2023-01-15T12:23:43.412Z,8.36
2023-01-15T12:24:43.397Z,8.36
2023-01-15T12:25:43.412Z,8.39
2023-01-15T12:26:43.379Z,8.36
2023-01-15T12:27:43.361Z,8.32
2023-01-15T12:28:43.360Z,8.28
2023-01-15T12:29:43.353Z,8.30
2023-01-15T12:30:43.343Z,8.29
2023-01-15T12:31:43.366Z,8.28
2023-01-15T12:32:43.310Z,8.30
2023-01-15T12:33:43.284Z,8.29
2023-01-15T12:34:43.278Z,8.29
2023-01-15T12:35:43.250Z,8.28
2023-01-15T12:36:43.286Z,8.30
2023-01-15T12:37:43.263Z,8.29
2023-01-15T12:38:43.225Z,8.32
2023-01-15T12:39:43.183Z,8.35
2023-01-15T12:40:43.183Z,8.37
2023-01-15T12:41:43.171Z,8.44
2023-01-15T12:42:43.155Z,8.48
2023-01-15T12:43:43.161Z,8.51
2023-01-15T12:44:43.121Z,8.51
2023-01-15T12:45:43.274Z,8.53
2023-01-15T12:46:43.201Z,8.50
2023-01-15T12:47:43.117Z,8.51
2023-01-15T12:48:43.091Z,8.48
2023-01-15T12:49:43.054Z,8.42
2023-01-15T12:51:05.230Z,8.42
2023-01-15T12:51:43.032Z,8.40
2023-01-15T12:52:43.034Z,8.36
2023-01-15T12:54:04.389Z,8.36
2023-01-15T12:54:42.983Z,8.35
2023-01-15T12:55:42.989Z,8.33
2023-01-15T12:57:03.971Z,8.35
2023-01-15T12:57:42.942Z,8.37
2023-01-15T12:58:42.966Z,8.33
2023-01-15T12:59:42.917Z,8.36
2023-01-15T13:00:42.965Z,8.37
2023-01-15T13:01:43.001Z,8.42
2023-01-15T13:02:42.881Z,8.45
2023-01-15T13:03:42.885Z,8.44
2023-01-15T13:04:42.856Z,8.42
2023-01-15T13:05:42.856Z,8.45
2023-01-15T13:06:45.080Z,8.42
2023-01-15T13:07:42.812Z,8.45
2023-01-15T13:08:42.810Z,8.48
2023-01-15T13:09:42.873Z,8.48
2023-01-15T13:10:42.778Z,8.50
2023-01-15T13:11:42.745Z,8.54
2023-01-15T13:16:30.047Z,8.60
2023-01-15T13:17:25.446Z,8.63
2023-01-15T13:18:25.439Z,8.71
2023-01-15T13:20:37.156Z,8.81
2023-01-15T13:21:38.133Z,8.86
2023-01-15T13:22:38.143Z,8.81
2023-01-15T13:23:38.122Z,8.79
2023-01-15T13:24:38.114Z,8.72
2023-01-15T13:25:38.074Z,8.73
2023-01-15T13:26:38.083Z,8.73
2023-01-15T13:27:38.063Z,8.72
2023-01-15T13:28:38.055Z,8.72
2023-01-15T13:29:38.077Z,8.69
2023-01-15T13:30:38.026Z,8.72
2023-01-15T13:31:37.997Z,8.65
2023-01-15T13:32:38.000Z,8.65
2023-01-15T13:33:37.980Z,8.60
2023-01-15T13:34:37.960Z,8.55
2023-01-15T13:35:37.977Z,8.55
2023-01-15T13:36:37.950Z,8.51
2023-01-15T13:37:37.949Z,8.50
2023-01-15T13:38:37.919Z,8.53
2023-01-15T13:39:37.885Z,8.51
2023-01-15T13:40:37.883Z,8.51
2023-01-15T13:41:37.862Z,8.54
2023-01-15T13:42:38.034Z,8.58
2023-01-15T13:43:37.841Z,8.53
2023-01-15T13:44:37.837Z,8.51
2023-01-15T13:45:37.867Z,8.48
2023-01-15T13:46:37.794Z,8.45
2023-01-15T13:47:37.787Z,8.40
2023-01-15T13:48:37.796Z,8.36
2023-01-15T13:49:37.766Z,8.36
2023-01-15T13:50:37.763Z,8.32
2023-01-15T13:51:37.738Z,8.30
2023-01-15T13:52:37.725Z,8.29
2023-01-15T13:53:37.727Z,8.29
2023-01-15T13:54:37.704Z,8.29
2023-01-15T13:55:37.711Z,8.33
2023-01-15T13:56:37.677Z,8.32
2023-01-15T13:57:37.678Z,8.32
2023-01-15T13:58:37.638Z,8.33
2023-01-15T13:59:37.638Z,8.35
2023-01-15T14:00:37.638Z,8.42
2023-01-15T14:01:37.755Z,8.47
2023-01-15T14:02:37.670Z,8.45
2023-01-15T14:03:37.586Z,8.45
2023-01-15T14:04:37.612Z,8.44
2023-01-15T14:05:37.575Z,8.45
2023-01-15T14:06:37.554Z,8.42
2023-01-15T14:07:37.531Z,8.40
2023-01-15T14:08:37.500Z,8.44
2023-01-15T14:09:37.516Z,8.44
2023-01-15T14:10:37.506Z,8.48
2023-01-15T14:11:37.473Z,8.53
2023-01-15T14:12:37.460Z,8.51
2023-01-15T14:13:37.438Z,8.50